Details From LOWI - Innsbruck Kranebitten
To MKJP - Norman Manley Intl
Flight Number -
Tags Generated
Created
Modified
Stats Distance 4,546 nm / 8,419 km
Max Altitude 0 ft / 0 m
Waypoints 7
Social Downloads 1
Likes 0
Share VATSIM

Download

Looking for another format? Having issues loading an existing format? Contact us
Advertisement - Login to hide

Notes

Generated

Route

LOWI LXI GONEK TELIN SABRE MLY71 MKJP

ID Type Via Altitude Latitude Longitude Leg Dist Tot Dist Heading (true) Name
O LOWI APT - 0 ft / 0 m 47.25883˚ 11.33091˚ - 0 nm - -
LXI NDB - 0 ft / 0 m 47.79658˚ 6.37519˚ 203 nm 203 nm 281° / 277° LUXEUIL NDB
GONEK FIX - 0 ft / 0 m 48.12000˚ 0.60333˚ 232 nm 436 nm 277° / 273° -
TELIN FIX - 0 ft / 0 m 48.24472˚ -4.19972˚ 192 nm 628 nm 274° / 270° -
SABRE FIX - 0 ft / 0 m 20.80917˚ -73.83222˚ 3675 nm 4304 nm 270° / 225° -
MLY71 FIX - 0 ft / 0 m 17.94091˚ -76.80520˚ 240 nm 4545 nm 225° / 224° -
O MKJP APT - 0 ft / 0 m 17.94026˚ -76.79945˚ 0 nm 4545 nm 97° / 97° -

Altitude Profile

Advertisement - Login to hide

Weather


0- 5 10 15 20 25 30 35+ Temperature / ° C

Clouds and Precipitation
Forecast for 2018-05-25 12:00 UTC. Updated 4 hours ago

Ground ~20,000 ft ~40,000 ft Winds

LOWI

Details ICAO LOWI (INN)
Name Innsbruck Kranebitten
Region Austria
Timezone Europe/Vienna (UTC+2.0)
Stats Elevation 1,906 ft / 581 m (AMSL)
Location 47.260226° 11.343967°
Runways 1
Magnetic Variation 3.072° E

METAR

LOWI 251450Z 07012KT 030V110 9999 FEW070 SCT110 25/11 Q1017 NOSIG

Decode

TAF

TAF LOWI 251115Z 2512/2612 09008KT 9999 SCT070 FEW070TCU TX26/2612Z TN12/2604Z BECMG 2517/2519 VRB02KT FEW060 BECMG 2610/2612 09010KT SCT060 FEW060TCU

Decode

Departure Runways

ID Width Length Bearing (true) Bearing (mag) Surface Threshold Offset Overrun Length
08 148 ft / 45 m 6,545 ft / 1,995 m 81.02° 77.95° Asphalt 338 ft / 103 m 0 ft / 0 m
26 148 ft / 45 m 6,545 ft / 1,995 m 261.04° 257.97° Asphalt 0 ft / 0 m 0 ft / 0 m

MKJP

Details ICAO MKJP (KIN)
Name Norman Manley Intl
Region Jamaica
Timezone Unknown (UTC+0.0)
Stats Elevation 10 ft / 3 m (AMSL)
Location 17.935665° -76.787560°
Runways 1
Magnetic Variation 7.591° W

METAR

MKJP 251500Z 13020KT 9999 FEW022 30/26 Q1013

Decode

TAF

TAF MKJP 251115Z 2512/2612 12012KT 9999 FEW022 SCT038 BECMG 2514/2516 14022KT FEW020 FEW022CB BECMG 2604/2606 11012KT

Decode

Destination Runways

ID Width Length Bearing (true) Bearing (mag) Surface Threshold Offset Overrun Length
12 150 ft / 46 m 8,912 ft / 2,717 m 112.09° 119.68° Asphalt 0 ft / 0 m 0 ft / 0 m
30 150 ft / 46 m 8,912 ft / 2,717 m 292.10° 299.69° Asphalt 0 ft / 0 m 0 ft / 0 m

Approach Navaids

Runway Type Ident Frequency Range Bearing (true) Bearing (mag) Slope Elevation
12 Localiser IMLY 109.10 MHz 18 nm / 33 km 115.09° 122.68° - 10 ft / 3 m (AMSL)
12 Glidescope IMLY 109.10 MHz 10 nm / 19 km 115.09° 122.68° 3.00° 8 ft / 2 m (AMSL)